Time;durP1;ratioP1;P1;durP2;ratioP2;P2;SDS_P1;SDS_P2;PMS_P1;PMS_P2;Temp;Humidity;BMP_temperature;BMP_pressure;BME280_temperature;BME280_humidity;BME280_pressure;Samples;Min_cycle;Max_cycle;Signal;HPM_P1;HPM_P2
2020/12/21 00:04:12;;;;;;;22.55;4.78;;;;;;;;;;10573455;27;20135;-65
2020/12/21 00:09:14;;;;;;;18.45;5.13;;;;;;;;;;10575096;28;20406;-65
2020/12/21 00:14:16;;;;;;;10.00;4.57;;;;;;;;;;10572878;28;20059;-66
2020/12/21 00:19:20;;;;;;;25.13;6.88;;;;;;;;;;10574570;28;20047;-66
2020/12/21 00:24:22;;;;;;;14.57;6.20;;;;;;;;;;10574920;28;20096;-65
2020/12/21 00:29:24;;;;;;;12.07;5.15;;;;;;;;;;10574942;28;20536;-65
2020/12/21 00:34:26;;;;;;;19.95;6.25;;;;;;;;;;10575657;27;20039;-65
2020/12/21 00:39:28;;;;;;;16.90;6.80;;;;;;;;;;10573841;28;20053;-65
2020/12/21 00:44:31;;;;;;;25.48;6.72;;;;;;;;;;10574392;28;20096;-65
2020/12/21 00:49:33;;;;;;;16.75;7.10;;;;;;;;;;10576812;27;20168;-66
2020/12/21 00:54:35;;;;;;;24.70;5.82;;;;;;;;;;10572203;28;20062;-66
2020/12/21 00:59:37;;;;;;;28.83;7.60;;;;;;;;;;10573812;28;20063;-65
2020/12/21 01:04:39;;;;;;;24.75;7.05;;;;;;;;;;10573144;27;20530;-65
2020/12/21 01:09:45;;;;;;;17.13;6.40;;;;;;;;;;10570851;27;20708;-66
2020/12/21 01:14:48;;;;;;;19.58;7.30;;;;;;;;;;10574662;27;20600;-65
2020/12/21 01:19:50;;;;;;;19.70;7.10;;;;;;;;;;10574873;27;20047;-66
2020/12/21 01:24:52;;;;;;;17.83;6.93;;;;;;;;;;10576488;27;20048;-65
2020/12/21 01:29:54;;;;;;;20.75;6.63;;;;;;;;;;10574208;27;20047;-65
2020/12/21 01:34:56;;;;;;;32.40;7.10;;;;;;;;;;10569818;27;20051;-65
2020/12/21 01:39:59;;;;;;;16.42;5.93;;;;;;;;;;10569970;27;20134;-66
2020/12/21 01:45:00;;;;;;;20.48;6.45;;;;;;;;;;10570910;27;20048;-66
2020/12/21 01:50:03;;;;;;;20.05;5.53;;;;;;;;;;10570931;27;20588;-65
2020/12/21 01:55:05;;;;;;;27.33;6.78;;;;;;;;;;10571833;27;20104;-66
2020/12/21 02:00:08;;;;;;;22.38;4.95;;;;;;;;;;10568950;27;20300;-66
2020/12/21 02:05:11;;;;;;;17.30;5.57;;;;;;;;;;10565086;27;20055;-65
2020/12/21 02:10:12;;;;;;;28.50;5.50;;;;;;;;;;10573676;28;20142;-66
2020/12/21 02:15:14;;;;;;;19.33;5.30;;;;;;;;;;10570901;28;20055;-65
2020/12/21 02:20:17;;;;;;;25.13;5.72;;;;;;;;;;10572035;28;20051;-66
2020/12/21 02:25:19;;;;;;;27.77;5.77;;;;;;;;;;10575092;28;20043;-68
2020/12/21 02:30:21;;;;;;;23.02;4.95;;;;;;;;;;10572901;28;20545;-66
2020/12/21 02:35:23;;;;;;;26.42;5.88;;;;;;;;;;10577394;27;20056;-65
2020/12/21 02:40:25;;;;;;;10.02;3.65;;;;;;;;;;10583772;27;20127;-67
2020/12/21 02:45:27;;;;;;;19.00;4.78;;;;;;;;;;10581884;27;20130;-67
2020/12/21 02:50:29;;;;;;;27.02;5.20;;;;;;;;;;10581146;27;20753;-67
2020/12/21 02:55:31;;;;;;;24.88;4.28;;;;;;;;;;10583134;27;20055;-67
2020/12/21 03:00:34;;;;;;;15.23;4.73;;;;;;;;;;10582826;27;20505;-67
2020/12/21 03:05:35;;;;;;;21.77;5.23;;;;;;;;;;10579540;27;20484;-68
2020/12/21 03:10:38;;;;;;;17.25;5.25;;;;;;;;;;10581466;27;20050;-66
2020/12/21 03:15:40;;;;;;;22.13;4.22;;;;;;;;;;10577192;27;20057;-67
2020/12/21 03:20:41;;;;;;;19.58;4.25;;;;;;;;;;10581785;27;20047;-66
2020/12/21 03:25:44;;;;;;;23.10;4.68;;;;;;;;;;10580469;27;20052;-66
2020/12/21 03:30:46;;;;;;;21.98;4.70;;;;;;;;;;10579528;27;20047;-67
2020/12/21 03:35:47;;;;;;;26.40;5.93;;;;;;;;;;10579964;27;20055;-67
2020/12/21 03:40:50;;;;;;;36.60;6.15;;;;;;;;;;10580264;27;20054;-68
2020/12/21 03:45:52;;;;;;;29.35;6.53;;;;;;;;;;10579242;27;20134;-65
2020/12/21 03:50:53;;;;;;;28.42;6.53;;;;;;;;;;10578691;27;20558;-65
2020/12/21 03:55:56;;;;;;;25.58;6.30;;;;;;;;;;10579003;27;20124;-65
2020/12/21 04:01:00;;;;;;;22.43;6.60;;;;;;;;;;10579703;27;20827;-65
2020/12/21 04:06:02;;;;;;;22.73;7.15;;;;;;;;;;10577646;27;20437;-65
2020/12/21 04:11:06;;;;;;;24.58;6.82;;;;;;;;;;10577852;27;20444;-65
2020/12/21 04:16:08;;;;;;;21.08;6.55;;;;;;;;;;10579126;27;20058;-64
2020/12/21 04:21:10;;;;;;;20.27;7.00;;;;;;;;;;10579000;27;20130;-65
2020/12/21 04:26:12;;;;;;;23.85;6.78;;;;;;;;;;10578764;27;20048;-66
2020/12/21 04:31:14;;;;;;;26.77;7.47;;;;;;;;;;10576676;27;20514;-66
2020/12/21 04:36:16;;;;;;;29.23;7.45;;;;;;;;;;10576744;27;20184;-66
2020/12/21 04:41:18;;;;;;;23.95;6.38;;;;;;;;;;10579080;27;20478;-65
2020/12/21 04:46:22;;;;;;;25.70;9.70;;;;;;;;;;10577729;27;20064;-66
2020/12/21 04:51:24;;;;;;;27.48;7.00;;;;;;;;;;10576383;27;20573;-65
2020/12/21 04:56:27;;;;;;;33.20;10.70;;;;;;;;;;10575437;27;20051;-65
2020/12/21 05:01:28;;;;;;;22.93;8.57;;;;;;;;;;10576315;27;20155;-65
2020/12/21 05:06:30;;;;;;;29.10;9.45;;;;;;;;;;10574613;27;20134;-65
2020/12/21 05:11:33;;;;;;;22.20;7.22;;;;;;;;;;10575929;27;20044;-65
2020/12/21 05:16:35;;;;;;;26.58;8.48;;;;;;;;;;10574457;27;20048;-65
2020/12/21 05:21:36;;;;;;;35.40;8.70;;;;;;;;;;10572003;27;20516;-65
2020/12/21 05:26:39;;;;;;;39.97;8.07;;;;;;;;;;10571682;27;20043;-66
2020/12/21 05:31:49;;;;;;;28.60;7.00;;;;;;;;;;10573888;27;20059;-65
2020/12/21 05:36:51;;;;;;;24.80;7.93;;;;;;;;;;10574366;27;20065;-65
2020/12/21 05:41:54;;;;;;;21.83;7.70;;;;;;;;;;10575781;27;20135;-65
2020/12/21 05:46:55;;;;;;;30.15;7.93;;;;;;;;;;10575145;27;20066;-66
2020/12/21 05:52:08;;;;;;;19.15;7.70;;;;;;;;;;10575751;27;20070;-64
2020/12/21 05:57:10;;;;;;;28.10;7.23;;;;;;;;;;10575223;27;20150;-64
2020/12/21 06:02:13;;;;;;;28.53;7.97;;;;;;;;;;10575280;27;20116;-65
2020/12/21 06:07:21;;;;;;;21.38;9.38;;;;;;;;;;10575743;28;20043;-64
2020/12/21 06:12:24;;;;;;;19.77;8.23;;;;;;;;;;10573286;27;20096;-66
2020/12/21 06:17:26;;;;;;;27.75;9.50;;;;;;;;;;10574978;28;20051;-66
2020/12/21 06:22:27;;;;;;;31.02;9.27;;;;;;;;;;10574414;28;20043;-66
2020/12/21 06:27:38;;;;;;;28.70;9.45;;;;;;;;;;10573942;28;20130;-65
2020/12/21 06:32:40;;;;;;;40.00;8.55;;;;;;;;;;10571832;28;20052;-65
2020/12/21 06:37:42;;;;;;;33.40;10.07;;;;;;;;;;10573228;28;20079;-65
2020/12/21 06:42:44;;;;;;;26.83;9.82;;;;;;;;;;10571416;28;20051;-65
2020/12/21 06:47:46;;;;;;;36.80;11.57;;;;;;;;;;10570486;28;20173;-67
2020/12/21 06:52:48;;;;;;;20.08;8.73;;;;;;;;;;10569528;28;20108;-66
2020/12/21 06:57:52;;;;;;;14.82;7.28;;;;;;;;;;10572545;28;20082;-66
2020/12/21 07:02:54;;;;;;;28.75;9.75;;;;;;;;;;10570506;28;20134;-66
2020/12/21 07:07:59;;;;;;;17.77;6.88;;;;;;;;;;10569524;28;20134;-67
2020/12/21 07:13:02;;;;;;;38.20;10.15;;;;;;;;;;10565040;28;20060;-66
2020/12/21 07:18:03;;;;;;;19.98;8.07;;;;;;;;;;10568754;28;20051;-67
2020/12/21 07:23:05;;;;;;;24.48;8.77;;;;;;;;;;10578200;27;20047;-66
2020/12/21 07:28:08;;;;;;;20.30;8.55;;;;;;;;;;10581216;27;20135;-66
2020/12/21 07:33:09;;;;;;;40.63;11.48;;;;;;;;;;10578483;27;20059;-66
2020/12/21 07:38:11;;;;;;;43.30;9.35;;;;;;;;;;10569238;27;20062;-68
2020/12/21 07:43:18;;;;;;;26.52;8.88;;;;;;;;;;10569412;27;20173;-64
2020/12/21 07:48:20;;;;;;;33.15;10.73;;;;;;;;;;10575015;27;20050;-67
2020/12/21 07:53:23;;;;;;;32.65;9.25;;;;;;;;;;10573502;27;20058;-67
2020/12/21 07:58:25;;;;;;;24.02;10.10;;;;;;;;;;10570368;27;20078;-65
2020/12/21 08:03:28;;;;;;;28.95;10.00;;;;;;;;;;10572764;27;20523;-67
2020/12/21 08:08:29;;;;;;;31.20;10.05;;;;;;;;;;10570992;27;20078;-66
2020/12/21 08:13:32;;;;;;;25.27;9.43;;;;;;;;;;10571189;27;20051;-66
2020/12/21 08:18:34;;;;;;;30.50;12.23;;;;;;;;;;10575210;27;20082;-65
2020/12/21 08:23:35;;;;;;;37.33;13.02;;;;;;;;;;10574121;27;20070;-67
2020/12/21 08:28:38;;;;;;;39.05;13.77;;;;;;;;;;10571860;27;20036;-64
2020/12/21 08:33:42;;;;;;;30.92;12.35;;;;;;;;;;10575916;27;20447;-64
2020/12/21 08:38:44;;;;;;;36.97;14.02;;;;;;;;;;10573441;27;20055;-66
2020/12/21 08:43:46;;;;;;;42.92;15.43;;;;;;;;;;10568747;27;20122;-64
2020/12/21 08:48:48;;;;;;;43.75;19.63;;;;;;;;;;10569493;28;20146;-65
2020/12/21 08:53:50;;;;;;;39.80;15.02;;;;;;;;;;10573698;27;20058;-65
2020/12/21 08:58:52;;;;;;;46.00;12.65;;;;;;;;;;10571888;27;20062;-64
2020/12/21 09:03:54;;;;;;;44.13;13.70;;;;;;;;;;10570667;28;20071;-66
2020/12/21 09:08:56;;;;;;;32.95;9.82;;;;;;;;;;10570870;27;20175;-66
2020/12/21 09:13:58;;;;;;;38.13;10.07;;;;;;;;;;10570362;27;20462;-64
2020/12/21 09:19:00;;;;;;;36.20;9.82;;;;;;;;;;10570427;28;20123;-65
2020/12/21 09:24:02;;;;;;;28.58;8.02;;;;;;;;;;10571255;27;20087;-65
2020/12/21 09:29:05;;;;;;;35.22;8.95;;;;;;;;;;10571779;27;20058;-66
2020/12/21 09:34:07;;;;;;;31.42;9.18;;;;;;;;;;10564014;27;20460;-65
2020/12/21 09:39:08;;;;;;;28.85;8.95;;;;;;;;;;10566829;27;21213;-63
2020/12/21 09:44:11;;;;;;;33.20;11.15;;;;;;;;;;10571123;27;20355;-65
2020/12/21 09:49:12;;;;;;;32.63;9.57;;;;;;;;;;10568503;27;20870;-64
2020/12/21 09:54:14;;;;;;;22.45;8.27;;;;;;;;;;10569224;27;20142;-65
2020/12/21 09:59:17;;;;;;;20.27;7.75;;;;;;;;;;10572370;27;20043;-66
2020/12/21 10:04:19;;;;;;;26.58;9.02;;;;;;;;;;10570087;28;20131;-66
2020/12/21 10:09:20;;;;;;;26.88;10.45;;;;;;;;;;10565633;28;20052;-67
2020/12/21 10:14:23;;;;;;;29.42;7.93;;;;;;;;;;10566096;28;20086;-68
2020/12/21 10:19:25;;;;;;;18.65;8.63;;;;;;;;;;10564524;28;20112;-65
2020/12/21 10:24:26;;;;;;;17.75;7.43;;;;;;;;;;10568262;28;20517;-66
2020/12/21 10:29:29;;;;;;;40.47;8.43;;;;;;;;;;10569586;28;20070;-68
2020/12/21 10:34:31;;;;;;;24.88;7.88;;;;;;;;;;10566693;28;20055;-70
2020/12/21 10:39:32;;;;;;;17.05;7.63;;;;;;;;;;10566966;28;20067;-71
2020/12/21 10:44:35;;;;;;;15.77;6.78;;;;;;;;;;10570074;28;20043;-69
2020/12/21 10:49:37;;;;;;;30.90;7.07;;;;;;;;;;10570274;28;20162;-67
2020/12/21 10:54:39;;;;;;;27.97;7.30;;;;;;;;;;10570309;28;20054;-68
2020/12/21 10:59:41;;;;;;;12.20;4.80;;;;;;;;;;10577517;27;20071;-62
2020/12/21 11:04:44;;;;;;;20.57;6.67;;;;;;;;;;10576390;28;20499;-72
2020/12/21 11:09:46;;;;;;;12.75;5.53;;;;;;;;;;10574848;27;20501;-62
2020/12/21 11:14:49;;;;;;;14.95;5.40;;;;;;;;;;10575361;27;20147;-63
2020/12/21 11:19:50;;;;;;;15.65;5.25;;;;;;;;;;10577084;27;20189;-62
2020/12/21 11:24:52;;;;;;;22.98;4.53;;;;;;;;;;10574757;27;20398;-62
2020/12/21 11:29:55;;;;;;;19.25;5.63;;;;;;;;;;10571330;27;20050;-63
2020/12/21 11:34:57;;;;;;;25.85;5.30;;;;;;;;;;10571532;27;20112;-62
2020/12/21 11:39:59;;;;;;;12.68;3.72;;;;;;;;;;10569808;27;20411;-63
2020/12/21 11:45:01;;;;;;;47.22;6.00;;;;;;;;;;10567983;27;20394;-63
2020/12/21 11:50:03;;;;;;;13.73;5.20;;;;;;;;;;10570776;27;20139;-63
2020/12/21 11:55:05;;;;;;;17.10;5.28;;;;;;;;;;10565709;27;20051;-60
2020/12/21 12:00:07;;;;;;;24.75;6.93;;;;;;;;;;10564066;27;20039;-61
2020/12/21 12:05:11;;;;;;;14.60;5.05;;;;;;;;;;10573934;27;20535;-61
2020/12/21 12:10:13;;;;;;;17.08;6.13;;;;;;;;;;10529083;27;20052;-62
2020/12/21 12:15:15;;;;;;;17.65;6.10;;;;;;;;;;10528855;28;20056;-62
2020/12/21 12:20:17;;;;;;;11.10;4.63;;;;;;;;;;10529760;28;20048;-60
2020/12/21 12:25:19;;;;;;;12.50;3.78;;;;;;;;;;10530788;28;20060;-62
2020/12/21 12:30:21;;;;;;;14.23;5.05;;;;;;;;;;10529370;28;20450;-62
2020/12/21 12:35:23;;;;;;;15.60;4.25;;;;;;;;;;10527814;28;20055;-63
2020/12/21 12:40:25;;;;;;;12.65;4.28;;;;;;;;;;10527873;28;20090;-59
2020/12/21 12:45:27;;;;;;;23.05;4.78;;;;;;;;;;10529039;28;20143;-61
2020/12/21 12:50:29;;;;;;;13.73;5.38;;;;;;;;;;10527757;28;20135;-65
2020/12/21 12:55:31;;;;;;;18.30;4.95;;;;;;;;;;10528704;28;20633;-63
2020/12/21 13:00:33;;;;;;;66.32;6.60;;;;;;;;;;10527038;28;20092;-64
2020/12/21 13:05:35;;;;;;;22.20;4.97;;;;;;;;;;10523838;28;20082;-64
2020/12/21 13:10:37;;;;;;;13.73;6.45;;;;;;;;;;10528464;28;20039;-61
2020/12/21 13:15:40;;;;;;;14.65;3.90;;;;;;;;;;10525240;28;20154;-62
2020/12/21 13:20:41;;;;;;;25.63;3.33;;;;;;;;;;10524733;28;20044;-61
2020/12/21 13:25:43;;;;;;;13.65;4.80;;;;;;;;;;10526440;28;20513;-62
2020/12/21 13:30:46;;;;;;;25.92;4.07;;;;;;;;;;10525113;28;20487;-63
2020/12/21 13:35:47;;;;;;;9.40;4.45;;;;;;;;;;10527380;28;20139;-61
2020/12/21 13:40:49;;;;;;;15.38;4.85;;;;;;;;;;10524697;28;20048;-63
2020/12/21 13:45:52;;;;;;;20.05;5.80;;;;;;;;;;10524290;28;20044;-60
2020/12/21 13:50:53;;;;;;;6.72;3.33;;;;;;;;;;10522238;28;20044;-61
2020/12/21 13:55:55;;;;;;;7.05;3.47;;;;;;;;;;10524315;28;20158;-61
2020/12/21 14:00:57;;;;;;;5.70;4.10;;;;;;;;;;10525144;28;20131;-61
2020/12/21 14:05:59;;;;;;;6.07;4.47;;;;;;;;;;10525955;28;20085;-61
2020/12/21 14:11:01;;;;;;;12.80;5.18;;;;;;;;;;10526429;28;20105;-61
2020/12/21 14:16:12;;;;;;;11.07;7.15;;;;;;;;;;10527208;28;20052;-62
2020/12/21 14:21:13;;;;;;;8.18;5.70;;;;;;;;;;10526838;28;20724;-63
2020/12/21 14:26:15;;;;;;;9.60;5.78;;;;;;;;;;10525413;28;20054;-60
2020/12/21 14:31:18;;;;;;;13.68;6.13;;;;;;;;;;10532989;28;20505;-62
2020/12/21 14:36:22;;;;;;;10.80;6.95;;;;;;;;;;10534687;28;20321;-60
2020/12/21 14:41:23;;;;;;;11.00;7.18;;;;;;;;;;10536984;28;20124;-60
2020/12/21 14:46:26;;;;;;;11.90;8.38;;;;;;;;;;10535724;28;20054;-62
2020/12/21 14:51:28;;;;;;;13.20;9.13;;;;;;;;;;10534735;28;20044;-63
2020/12/21 14:56:30;;;;;;;21.33;11.38;;;;;;;;;;10532503;28;20581;-62
2020/12/21 15:01:33;;;;;;;16.70;8.90;;;;;;;;;;10534609;28;20468;-61
2020/12/21 15:06:34;;;;;;;13.27;8.75;;;;;;;;;;10533290;28;20539;-61
2020/12/21 15:11:37;;;;;;;12.02;8.60;;;;;;;;;;10533939;28;20052;-62
2020/12/21 15:16:40;;;;;;;12.18;8.13;;;;;;;;;;10531978;28;20048;-61
2020/12/21 15:21:41;;;;;;;17.58;10.27;;;;;;;;;;10535281;28;20091;-62
2020/12/21 15:26:43;;;;;;;15.55;9.13;;;;;;;;;;10531803;28;20059;-62
2020/12/21 15:31:46;;;;;;;13.43;7.88;;;;;;;;;;10528987;28;20047;-63
2020/12/21 15:36:47;;;;;;;11.73;6.15;;;;;;;;;;10530999;28;20052;-60
2020/12/21 15:41:49;;;;;;;6.15;4.65;;;;;;;;;;10532114;28;20543;-61
2020/12/21 15:46:54;;;;;;;10.30;6.97;;;;;;;;;;10534328;28;20135;-61
2020/12/21 15:51:55;;;;;;;6.85;4.10;;;;;;;;;;10531474;28;20385;-61
2020/12/21 15:56:58;;;;;;;11.43;6.93;;;;;;;;;;10531186;28;20444;-61
2020/12/21 16:02:02;;;;;;;15.80;9.23;;;;;;;;;;10532068;28;20044;-62
2020/12/21 16:07:04;;;;;;;13.05;8.43;;;;;;;;;;10533267;28;20075;-61
2020/12/21 16:12:06;;;;;;;16.85;9.25;;;;;;;;;;10528416;28;20155;-62
2020/12/21 16:17:09;;;;;;;21.45;11.05;;;;;;;;;;10530314;28;20441;-61
2020/12/21 16:22:11;;;;;;;22.95;10.98;;;;;;;;;;10531204;28;20559;-62
2020/12/21 16:27:12;;;;;;;21.88;11.05;;;;;;;;;;10529524;28;20965;-61
2020/12/21 16:32:15;;;;;;;21.23;11.95;;;;;;;;;;10528735;28;20054;-60
2020/12/21 16:37:17;;;;;;;23.85;14.43;;;;;;;;;;10531653;28;20055;-64
2020/12/21 16:42:19;;;;;;;23.40;13.15;;;;;;;;;;10528434;28;20048;-62
2020/12/21 16:47:21;;;;;;;22.77;13.95;;;;;;;;;;10528348;28;20048;-62
2020/12/21 16:52:23;;;;;;;30.58;16.92;;;;;;;;;;10526812;28;20138;-63
2020/12/21 16:57:25;;;;;;;40.17;21.35;;;;;;;;;;10529248;28;20151;-61
2020/12/21 17:02:27;;;;;;;41.97;20.52;;;;;;;;;;10529612;28;20048;-63
2020/12/21 17:07:29;;;;;;;51.83;26.43;;;;;;;;;;10529499;28;20096;-62
2020/12/21 17:12:31;;;;;;;58.83;29.33;;;;;;;;;;10527363;28;20490;-64
2020/12/21 17:17:33;;;;;;;42.13;20.23;;;;;;;;;;10528834;28;20058;-63
2020/12/21 17:22:35;;;;;;;57.63;26.83;;;;;;;;;;10527087;28;20055;-61
2020/12/21 17:27:37;;;;;;;58.95;26.45;;;;;;;;;;10531171;28;20447;-62
2020/12/21 17:32:39;;;;;;;49.55;21.80;;;;;;;;;;10525169;28;20506;-59
2020/12/21 17:37:41;;;;;;;35.03;17.80;;;;;;;;;;10526812;28;20147;-61
2020/12/21 17:42:43;;;;;;;46.80;19.75;;;;;;;;;;10528320;28;20054;-61
2020/12/21 17:47:45;;;;;;;46.50;22.95;;;;;;;;;;10526569;28;20510;-61
2020/12/21 17:52:47;;;;;;;59.08;25.35;;;;;;;;;;10528448;28;20056;-61
2020/12/21 17:57:49;;;;;;;68.43;31.38;;;;;;;;;;10528586;28;20136;-62
2020/12/21 18:02:51;;;;;;;84.15;33.45;;;;;;;;;;10522116;28;20066;-59
2020/12/21 18:07:53;;;;;;;63.03;25.38;;;;;;;;;;10526207;28;20419;-60
2020/12/21 18:12:55;;;;;;;85.43;33.63;;;;;;;;;;10525348;28;20056;-59
2020/12/21 18:17:58;;;;;;;107.37;37.33;;;;;;;;;;10527258;28;20048;-60
2020/12/21 18:23:00;;;;;;;99.38;38.40;;;;;;;;;;10525774;28;20233;-59
2020/12/21 18:28:01;;;;;;;121.30;41.10;;;;;;;;;;10527088;28;20131;-61
2020/12/21 18:33:05;;;;;;;117.00;43.92;;;;;;;;;;10525312;28;20052;-61
2020/12/21 18:38:07;;;;;;;109.20;40.47;;;;;;;;;;10528770;28;20138;-59
2020/12/21 18:43:09;;;;;;;119.10;44.78;;;;;;;;;;10531193;28;20036;-60
2020/12/21 18:48:11;;;;;;;131.05;45.47;;;;;;;;;;10526139;28;20063;-60
2020/12/21 18:53:13;;;;;;;114.88;41.15;;;;;;;;;;10526026;28;20150;-61
2020/12/21 18:58:18;;;;;;;98.05;38.33;;;;;;;;;;10525660;28;20056;-62
2020/12/21 19:03:20;;;;;;;101.55;38.63;;;;;;;;;;10527948;28;20048;-62
2020/12/21 19:08:22;;;;;;;134.88;37.50;;;;;;;;;;10526299;28;20052;-61
2020/12/21 19:13:27;;;;;;;126.65;38.53;;;;;;;;;;10695570;22;20049;-62
2020/12/21 19:18:31;;;;;;;151.98;35.85;;;;;;;;;;10422851;28;20049;-62
2020/12/21 19:23:33;;;;;;;95.90;32.47;;;;;;;;;;10423512;28;20049;-60
2020/12/21 19:28:35;;;;;;;89.70;30.33;;;;;;;;;;10421745;28;20095;-60
2020/12/21 19:33:37;;;;;;;81.97;30.90;;;;;;;;;;10415524;28;20132;-60
2020/12/21 19:38:40;;;;;;;69.72;28.60;;;;;;;;;;10422135;28;20082;-59
2020/12/21 19:43:44;;;;;;;71.80;27.45;;;;;;;;;;10407651;28;20509;-62
2020/12/21 19:48:46;;;;;;;71.15;29.38;;;;;;;;;;10406686;28;20646;-61
2020/12/21 19:53:48;;;;;;;70.95;26.77;;;;;;;;;;10402329;28;20053;-62
2020/12/21 19:58:50;;;;;;;52.50;20.90;;;;;;;;;;10403467;28;20097;-61
2020/12/21 20:03:54;;;;;;;87.30;32.35;;;;;;;;;;10405050;28;20149;-60
2020/12/21 20:08:55;;;;;;;85.78;30.58;;;;;;;;;;10405824;28;20045;-62
2020/12/21 20:13:57;;;;;;;79.65;27.05;;;;;;;;;;10405843;28;20460;-60
2020/12/21 20:18:59;;;;;;;85.45;28.65;;;;;;;;;;10404210;28;20135;-60
2020/12/21 20:24:04;;;;;;;99.15;31.85;;;;;;;;;;10404284;28;20059;-60
2020/12/21 20:29:06;;;;;;;74.32;25.70;;;;;;;;;;10402882;28;20140;-60
2020/12/21 20:34:08;;;;;;;67.40;22.58;;;;;;;;;;10402702;28;20041;-61
2020/12/21 20:39:10;;;;;;;66.78;24.50;;;;;;;;;;10404109;28;20042;-61
2020/12/21 20:44:12;;;;;;;59.90;20.08;;;;;;;;;;10403778;28;20103;-62
2020/12/21 20:49:14;;;;;;;41.08;14.55;;;;;;;;;;10402624;28;20079;-60
2020/12/21 20:54:16;;;;;;;23.13;8.93;;;;;;;;;;10401918;28;20077;-62
2020/12/21 20:59:18;;;;;;;22.00;9.68;;;;;;;;;;10404671;28;20572;-60
2020/12/21 21:04:21;;;;;;;13.48;7.88;;;;;;;;;;10404214;28;20045;-62
2020/12/21 21:09:23;;;;;;;28.05;11.18;;;;;;;;;;10401033;28;20071;-61
2020/12/21 21:14:24;;;;;;;23.15;11.45;;;11.80;99.90;;;;;;10404393;28;20592;-61
2020/12/21 21:19:27;;;;;;;17.98;10.40;;;11.80;99.90;;;;;;10405872;28;20426;-61
2020/12/21 21:24:29;;;;;;;;;;;11.80;99.90;;;;;;10407145;28;20069;-62
2020/12/21 21:29:31;;;;;;;18.50;8.82;;;11.90;99.90;;;;;;10406533;28;20543;-61
2020/12/21 21:34:34;;;;;;;13.10;7.10;;;12.00;99.90;;;;;;10406290;28;20071;-61
2020/12/21 21:39:35;;;;;;;12.27;6.83;;;;;;;;;;10402588;28;20047;-61
2020/12/21 21:44:37;;;;;;;11.43;5.38;;;;;;;;;;10404582;28;20053;-61
2020/12/21 21:49:43;;;;;;;12.32;3.58;;;;;;;;;;10405593;28;20503;-61
2020/12/21 21:54:44;;;;;;;10.07;3.85;;;;;;;;;;10406437;28;20095;-61
2020/12/21 21:59:46;;;;;;;17.52;5.43;;;;;;;;;;10405430;28;20099;-60
2020/12/21 22:04:49;;;;;;;18.85;5.53;;;;;;;;;;10405108;28;20488;-61
2020/12/21 22:09:50;;;;;;;22.05;5.57;;;;;;;;;;10405182;28;20045;-61
2020/12/21 22:14:52;;;;;;;19.92;3.75;;;;;;;;;;10404950;28;20053;-60
2020/12/21 22:19:55;;;;;;;18.38;4.47;;;;;;;;;;10403126;28;20049;-60
2020/12/21 22:24:56;;;;;;;27.10;4.60;;;;;;;;;;10404023;28;20055;-59
2020/12/21 22:29:58;;;;;;;24.95;4.15;;;12.00;99.90;;;;;;10403667;28;20136;-60
2020/12/21 22:35:00;;;;;;;17.65;3.92;;;12.00;99.90;;;;;;10402576;28;20060;-59
2020/12/21 22:40:01;;;;;;;26.10;4.47;;;12.00;99.90;;;;;;10399725;28;20404;-60
2020/12/21 22:45:03;;;;;;;30.05;4.57;;;11.90;99.90;;;;;;10386278;28;20435;-59
2020/12/21 22:50:05;;;;;;;38.72;5.75;;;11.90;99.90;;;;;;10402752;28;20394;-60
2020/12/21 22:55:06;;;;;;;26.57;5.97;;;11.90;99.90;;;;;;10410094;28;20049;-60
2020/12/21 23:00:08;;;;;;;24.75;4.75;;;11.90;99.90;;;;;;10410651;28;20076;-60
2020/12/21 23:05:10;;;;;;;28.63;6.32;;;11.80;99.80;;;;;;10410510;28;20147;-61
2020/12/21 23:10:11;;;;;;;33.03;6.53;;;11.70;99.80;;;;;;10409705;28;20070;-60
2020/12/21 23:15:13;;;;;;;35.25;5.82;;;11.60;99.70;;;;;;10408710;28;20416;-60
2020/12/21 23:20:15;;;;;;;41.53;6.15;;;11.50;99.70;;;;;;10409246;28;20511;-60
2020/12/21 23:25:16;;;;;;;43.75;5.78;;;11.50;99.70;;;;;;10408749;28;20274;-60
2020/12/21 23:30:18;;;;;;;37.22;5.10;;;11.60;99.70;;;;;;10409093;28;20099;-60
2020/12/21 23:35:20;;;;;;;45.35;6.70;;;11.50;99.70;;;;;;10407943;28;20077;-61
2020/12/21 23:40:21;;;;;;;43.83;7.13;;;11.50;99.70;;;;;;10408749;28;20469;-61
2020/12/21 23:45:22;;;;;;;39.10;6.43;;;11.50;99.70;;;;;;10410065;28;20041;-60
2020/12/21 23:50:25;;;;;;;34.92;7.45;;;11.50;99.70;;;;;;10408574;28;20049;-60
2020/12/21 23:55:26;;;;;;;33.20;5.90;;;11.50;99.70;;;;;;10406821;28;20089;-60
